createdAt,value
2023-03-24T00:01:01.742Z,99721.06
2023-03-24T00:03:29.759Z,99722.44
2023-03-24T00:06:04.586Z,99726.94
2023-03-24T00:08:36.446Z,99720.41
2023-03-24T00:11:06.501Z,99721.19
2023-03-24T00:13:38.392Z,99719.28
2023-03-24T00:16:11.265Z,99725.75
2023-03-24T00:18:39.276Z,99705.56
2023-03-24T00:21:07.731Z,99695.84
2023-03-24T00:23:35.093Z,99699.06
2023-03-24T00:26:08.861Z,99690.16
2023-03-24T00:28:36.914Z,99690.38
2023-03-24T00:31:05.787Z,99679.47
2023-03-24T00:33:34.804Z,99677.47
2023-03-24T00:36:03.119Z,99679.47
2023-03-24T00:38:29.862Z,99668.16
2023-03-24T00:40:56.722Z,99663.81
2023-03-24T00:43:23.100Z,99663.72
2023-03-24T00:45:49.588Z,99654.78
2023-03-24T00:48:20.278Z,99658.03
2023-03-24T00:50:51.979Z,99660.13
2023-03-24T00:53:19.348Z,99653.53
2023-03-24T00:55:49.521Z,99644.84
2023-03-24T00:58:19.717Z,99643.81
2023-03-24T01:03:14.319Z,99644.25
2023-03-24T01:05:41.373Z,99637.22
2023-03-24T01:08:09.128Z,99636.53
2023-03-24T01:10:42.671Z,99638.41
2023-03-24T01:13:10.295Z,99629.13
2023-03-24T01:15:36.676Z,99635.41
2023-03-24T01:18:03.251Z,99619.25
2023-03-24T01:20:33.601Z,99625.50
2023-03-24T01:23:01.382Z,99627.66
2023-03-24T01:25:28.211Z,99634.44
2023-03-24T01:27:54.811Z,99626.25
2023-03-24T01:30:24.232Z,99621.91
2023-03-24T01:32:52.197Z,99622.91
2023-03-24T01:35:20.803Z,99615.25
2023-03-24T01:37:47.312Z,99620.09
2023-03-24T01:40:21.437Z,99616.56
2023-03-24T01:42:48.163Z,99601.09
2023-03-24T01:45:39.770Z,99594.22
2023-03-24T01:48:14.479Z,99597.97
2023-03-24T01:50:44.058Z,99592.09
2023-03-24T01:53:11.170Z,99578.94
2023-03-24T01:55:38.080Z,99572.69
2023-03-24T01:58:04.941Z,99573.81
2023-03-24T02:00:31.545Z,99565.91
2023-03-24T02:03:04.200Z,99565.28
2023-03-24T02:05:34.547Z,99568.34
2023-03-24T02:08:16.216Z,99543.78
2023-03-24T02:10:44.255Z,99540.13
2023-03-24T02:13:11.313Z,99529.50
2023-03-24T02:16:13.312Z,99525.88
2023-03-24T02:18:44.876Z,99517.16
2023-03-24T02:21:49.143Z,99508.38
2023-03-24T02:24:59.287Z,99503.00
2023-03-24T02:27:47.429Z,99504.63
2023-03-24T02:30:35.496Z,99499.16
2023-03-24T02:33:17.673Z,99498.38
2023-03-24T02:36:18.121Z,99498.03
2023-03-24T02:38:47.820Z,99490.47
2023-03-24T02:41:27.492Z,99488.25
2023-03-24T02:44:14.371Z,99487.22
2023-03-24T02:47:03.804Z,99494.31
2023-03-24T02:50:08.580Z,99482.19
2023-03-24T02:53:00.161Z,99484.38
2023-03-24T02:55:36.090Z,99491.47
2023-03-24T02:58:07.388Z,99489.84
2023-03-24T03:00:47.550Z,99487.22
2023-03-24T03:03:19.350Z,99493.50
2023-03-24T03:05:52.930Z,99497.03
2023-03-24T03:08:22.253Z,99491.28
2023-03-24T03:10:51.797Z,99500.59
2023-03-24T03:13:31.020Z,99495.94
2023-03-24T03:16:04.311Z,99491.28
2023-03-24T03:18:46.340Z,99497.53
2023-03-24T03:21:15.830Z,99481.66
2023-03-24T03:23:47.718Z,99481.66
2023-03-24T03:26:17.883Z,99484.59
2023-03-24T03:28:50.080Z,99483.19
2023-03-24T03:31:24.235Z,99487.44
2023-03-24T03:33:58.317Z,99483.31
2023-03-24T03:36:30.313Z,99482.56
2023-03-24T03:39:24.133Z,99470.47
2023-03-24T03:41:50.939Z,99472.91
2023-03-24T03:44:17.404Z,99475.84
2023-03-24T03:46:44.062Z,99470.66
2023-03-24T03:49:10.824Z,99466.13
2023-03-24T03:51:37.300Z,99467.13
2023-03-24T03:54:07.314Z,99462.19
2023-03-24T03:56:36.248Z,99474.22
2023-03-24T03:59:04.015Z,99474.13
2023-03-24T04:01:36.504Z,99475.13
2023-03-24T04:04:38.040Z,99483.22
2023-03-24T04:07:24.572Z,99482.22
2023-03-24T04:10:12.373Z,99483.81
2023-03-24T04:12:48.039Z,99475.53
2023-03-24T04:15:34.253Z,99476.53
2023-03-24T04:18:30.325Z,99474.59
2023-03-24T04:21:28.408Z,99483.59
2023-03-24T04:24:11.361Z,99476.63
2023-03-24T04:26:48.300Z,99481.28
2023-03-24T04:29:42.350Z,99486.63
2023-03-24T04:32:25.120Z,99478.75
2023-03-24T04:35:01.338Z,99489.06
2023-03-24T04:37:37.866Z,99489.91
2023-03-24T04:40:14.869Z,99500.19
2023-03-24T04:42:46.332Z,99502.63
2023-03-24T04:45:14.529Z,99495.53
2023-03-24T04:47:47.273Z,99508.59
2023-03-24T04:50:14.587Z,99505.88
2023-03-24T04:52:42.661Z,99509.19
2023-03-24T04:55:34.235Z,99525.91
2023-03-24T04:58:00.759Z,99552.84
2023-03-24T05:00:27.687Z,99581.47
2023-03-24T05:02:54.050Z,99573.91
2023-03-24T05:05:20.634Z,99570.09
2023-03-24T05:07:47.048Z,99588.00
2023-03-24T05:10:13.401Z,99593.19
2023-03-24T05:12:39.749Z,99586.63
2023-03-24T05:15:06.884Z,99586.75
2023-03-24T05:17:33.368Z,99594.78
2023-03-24T05:19:59.697Z,99605.69
2023-03-24T05:22:26.073Z,99613.63
2023-03-24T05:24:52.555Z,99623.75
2023-03-24T05:27:18.961Z,99622.63
2023-03-24T05:29:45.439Z,99635.91
2023-03-24T05:32:13.370Z,99650.34
2023-03-24T05:34:39.828Z,99644.31
2023-03-24T05:37:11.971Z,99650.56
2023-03-24T05:39:38.487Z,99640.47
2023-03-24T05:42:05.119Z,99656.09
2023-03-24T05:44:31.785Z,99664.78
2023-03-24T05:46:58.241Z,99663.69
2023-03-24T05:49:24.668Z,99658.00
2023-03-24T05:51:51.173Z,99665.16
2023-03-24T05:54:17.598Z,99666.75
2023-03-24T05:56:44.155Z,99656.97
2023-03-24T05:59:11.848Z,99673.25
2023-03-24T06:01:38.258Z,99675.41
2023-03-24T06:04:04.945Z,99679.22
2023-03-24T06:06:31.310Z,99695.00
2023-03-24T06:08:58.495Z,99685.75
2023-03-24T06:11:24.905Z,99692.22
2023-03-24T06:13:51.225Z,99691.72
2023-03-24T06:16:18.806Z,99692.81
2023-03-24T06:18:53.036Z,99696.75
2023-03-24T06:21:20.178Z,99704.88
2023-03-24T06:23:47.047Z,99713.09
2023-03-24T06:26:14.869Z,99728.94
2023-03-24T06:28:42.270Z,99741.56
2023-03-24T06:31:15.188Z,99732.53
2023-03-24T06:33:42.759Z,99744.28
2023-03-24T06:36:11.363Z,99746.50
2023-03-24T06:38:38.366Z,99751.94
2023-03-24T06:41:05.528Z,99750.59
2023-03-24T06:43:32.691Z,99753.31
2023-03-24T06:45:59.883Z,99757.94
2023-03-24T06:48:26.722Z,99771.03
2023-03-24T06:50:54.685Z,99796.28
2023-03-24T06:53:22.313Z,99799.84
2023-03-24T06:55:49.641Z,99782.09
2023-03-24T06:58:17.878Z,99783.06
2023-03-24T07:00:47.004Z,99805.41
2023-03-24T07:03:15.958Z,99826.22
2023-03-24T07:05:45.073Z,99824.69
2023-03-24T07:10:43.833Z,99813.81
2023-03-24T07:13:10.426Z,99808.41
2023-03-24T07:15:37.091Z,99821.28
2023-03-24T07:18:03.658Z,99841.75
2023-03-24T07:20:30.061Z,99842.22
2023-03-24T07:22:57.370Z,99845.19
2023-03-24T07:25:24.498Z,99843.81
2023-03-24T07:27:55.865Z,99827.53
2023-03-24T07:30:30.022Z,99831.59
2023-03-24T07:33:06.460Z,99837.38
2023-03-24T07:35:33.424Z,99847.50
2023-03-24T07:38:00.832Z,99843.97
2023-03-24T07:40:27.593Z,99844.16
2023-03-24T07:42:54.185Z,99845.22
2023-03-24T07:45:20.694Z,99843.03
2023-03-24T07:47:47.130Z,99842.19
2023-03-24T07:50:14.283Z,99856.13
2023-03-24T07:52:42.398Z,99868.94
2023-03-24T07:55:11.990Z,99869.22
2023-03-24T07:57:49.032Z,99861.81
2023-03-24T08:00:19.926Z,99851.81
2023-03-24T08:02:49.317Z,99849.31
2023-03-24T08:05:16.552Z,99859.16
2023-03-24T08:07:44.887Z,99868.38
2023-03-24T08:10:13.686Z,99875.09
2023-03-24T08:12:41.091Z,99872.59
2023-03-24T08:15:09.449Z,99871.94
2023-03-24T08:17:36.650Z,99879.28
2023-03-24T08:20:14.290Z,99876.03
2023-03-24T08:22:49.526Z,99881.72
2023-03-24T08:25:18.818Z,99871.03
2023-03-24T08:27:47.124Z,99868.50
2023-03-24T08:30:20.130Z,99869.91
2023-03-24T08:32:52.749Z,99858.66
2023-03-24T08:35:23.081Z,99863.97
2023-03-24T08:37:49.601Z,99861.88
2023-03-24T08:40:20.306Z,99873.44
2023-03-24T08:42:56.038Z,99857.16
2023-03-24T08:45:27.261Z,99862.13
2023-03-24T08:47:55.517Z,99867.03
2023-03-24T08:50:25.949Z,99861.41
2023-03-24T08:52:52.369Z,99863.56
2023-03-24T08:55:19.576Z,99870.69
2023-03-24T08:57:46.673Z,99871.34
2023-03-24T09:00:15.448Z,99865.75
2023-03-24T09:02:43.328Z,99876.44
2023-03-24T09:05:10.105Z,99885.88
2023-03-24T09:07:36.527Z,99888.06
2023-03-24T09:10:04.861Z,99892.47
2023-03-24T09:12:31.297Z,99900.22
2023-03-24T09:14:57.702Z,99898.34
2023-03-24T09:17:24.133Z,99893.59
2023-03-24T09:19:50.556Z,99900.47
2023-03-24T09:22:17.070Z,99902.22
2023-03-24T09:24:44.313Z,99896.25
2023-03-24T09:27:11.142Z,99909.75
2023-03-24T09:29:38.036Z,99903.81
2023-03-24T09:32:04.434Z,99902.59
2023-03-24T09:34:32.539Z,99901.50
2023-03-24T09:36:59.052Z,99895.88
2023-03-24T09:39:25.448Z,99892.78
2023-03-24T09:41:51.786Z,99896.53
2023-03-24T09:44:26.444Z,99900.84
2023-03-24T09:47:00.768Z,99891.84
2023-03-24T09:49:34.572Z,99899.06
2023-03-24T09:52:05.866Z,99899.47
2023-03-24T09:54:51.298Z,99893.41
2023-03-24T09:57:27.553Z,99905.06
2023-03-24T09:59:54.391Z,99907.41
2023-03-24T10:02:22.398Z,99902.72
2023-03-24T10:04:49.845Z,99911.28
2023-03-24T10:07:34.537Z,99899.53
2023-03-24T10:10:01.823Z,99916.28
2023-03-24T10:12:50.560Z,99916.47
2023-03-24T10:18:25.932Z,99922.59
2023-03-24T10:21:00.943Z,99926.22
2023-03-24T10:23:39.427Z,99930.16
2023-03-24T10:26:34.023Z,99921.13
2023-03-24T10:29:30.730Z,99930.16
2023-03-24T10:32:03.210Z,99921.84
2023-03-24T10:34:32.938Z,99924.91
2023-03-24T10:37:04.320Z,99920.44
2023-03-24T10:39:41.940Z,99931.53
2023-03-24T10:42:18.675Z,99932.31
2023-03-24T10:44:48.258Z,99929.88
2023-03-24T10:47:18.602Z,99933.63
2023-03-24T10:50:00.642Z,99927.75
2023-03-24T10:52:28.430Z,99922.88
2023-03-24T10:55:03.413Z,99934.66
2023-03-24T10:57:30.662Z,99943.06
2023-03-24T11:00:00.664Z,99938.03
2023-03-24T11:02:31.183Z,99932.13
2023-03-24T11:05:02.398Z,99939.09
2023-03-24T11:07:34.022Z,99924.06
2023-03-24T11:10:09.897Z,99941.34
2023-03-24T11:12:40.145Z,99938.28
2023-03-24T11:15:21.807Z,99951.50
2023-03-24T11:18:21.460Z,99942.38
2023-03-24T11:20:57.025Z,99954.84
2023-03-24T11:23:38.950Z,99954.81
2023-03-24T11:26:18.154Z,99955.97
2023-03-24T11:28:52.774Z,99953.22
2023-03-24T11:31:30.676Z,99949.47
2023-03-24T11:34:00.618Z,99952.72
2023-03-24T11:36:30.385Z,99954.97
2023-03-24T11:39:03.783Z,99962.16
2023-03-24T11:41:30.283Z,99958.41
2023-03-24T11:44:20.923Z,99961.66
2023-03-24T11:46:51.194Z,99948.25
2023-03-24T11:49:21.892Z,99948.75
2023-03-24T11:51:52.926Z,99947.84
2023-03-24T11:54:23.204Z,99940.94
2023-03-24T11:56:56.498Z,99935.97
2023-03-24T11:59:30.071Z,99939.09
2023-03-24T12:02:00.547Z,99934.81
2023-03-24T12:04:42.463Z,99941.94
2023-03-24T12:07:35.159Z,99928.75
2023-03-24T12:10:38.795Z,99929.91
2023-03-24T12:13:33.422Z,99925.66
2023-03-24T12:16:27.971Z,99925.41
2023-03-24T12:19:09.188Z,99918.19
2023-03-24T12:21:48.398Z,99914.00
2023-03-24T12:24:43.814Z,99921.72
2023-03-24T12:27:33.799Z,99918.56
2023-03-24T12:30:33.396Z,99908.75
2023-03-24T12:33:14.549Z,99904.69
2023-03-24T12:36:23.009Z,99898.28
2023-03-24T12:39:02.070Z,99915.50
2023-03-24T12:41:40.890Z,99894.63
2023-03-24T12:44:38.653Z,99882.00
2023-03-24T12:47:41.487Z,99901.97
2023-03-24T12:50:32.985Z,99902.81
2023-03-24T12:53:11.522Z,99890.59
2023-03-24T12:55:49.103Z,99885.50
2023-03-24T12:58:41.548Z,99906.13
2023-03-24T13:01:19.363Z,99900.19
2023-03-24T13:03:54.762Z,99898.31
2023-03-24T13:06:32.874Z,99898.03
2023-03-24T13:09:40.390Z,99902.19
2023-03-24T13:12:27.826Z,99902.31
2023-03-24T13:15:09.448Z,99895.19
2023-03-24T13:17:45.073Z,99885.84
2023-03-24T13:20:14.607Z,99886.66
2023-03-24T13:22:41.323Z,99902.06
2023-03-24T13:25:26.930Z,99874.91
2023-03-24T13:27:57.452Z,99881.84
2023-03-24T13:30:32.831Z,99885.22
2023-03-24T13:33:04.917Z,99889.88
2023-03-24T13:35:56.672Z,99879.97
2023-03-24T13:38:35.866Z,99881.22
2023-03-24T13:41:05.899Z,99866.25
2023-03-24T13:43:33.906Z,99885.34
2023-03-24T13:46:03.266Z,99876.84
2023-03-24T13:48:47.190Z,99875.13
2023-03-24T13:51:25.383Z,99874.00
2023-03-24T13:54:02.329Z,99853.44
2023-03-24T13:56:35.820Z,99865.06
2023-03-24T13:59:02.210Z,99852.69
2023-03-24T14:01:33.280Z,99850.38
2023-03-24T14:04:18.251Z,99856.94
2023-03-24T14:07:01.373Z,99860.88
2023-03-24T14:09:32.970Z,99857.09
2023-03-24T14:12:02.231Z,99861.06
2023-03-24T14:14:29.132Z,99860.63
2023-03-24T14:17:15.581Z,99866.19
2023-03-24T14:19:43.337Z,99912.06
2023-03-24T14:22:12.371Z,99893.06
2023-03-24T14:24:44.726Z,99890.53
2023-03-24T14:27:36.105Z,99903.13
2023-03-24T14:30:12.670Z,99873.06
2023-03-24T14:32:52.303Z,99878.56
2023-03-24T14:35:39.501Z,99878.19
2023-03-24T14:38:23.431Z,99873.66
2023-03-24T14:40:56.629Z,99890.13
2023-03-24T14:43:29.192Z,99886.88
2023-03-24T14:46:22.963Z,99888.78
2023-03-24T14:49:01.959Z,99903.97
2023-03-24T14:51:47.441Z,99892.44
2023-03-24T14:54:23.166Z,99889.22
2023-03-24T14:56:54.150Z,99912.34
2023-03-24T14:59:26.975Z,99904.03
2023-03-24T15:02:01.386Z,99899.09
2023-03-24T15:04:27.825Z,99890.47
2023-03-24T15:06:54.281Z,99886.88
2023-03-24T15:09:20.922Z,99885.09
2023-03-24T15:11:48.822Z,99882.03
2023-03-24T15:14:25.887Z,99886.38
2023-03-24T15:17:00.905Z,99881.53
2023-03-24T15:19:30.829Z,99871.41
2023-03-24T15:22:10.327Z,99883.84
2023-03-24T15:24:38.485Z,99879.31
2023-03-24T15:27:07.616Z,99887.22
2023-03-24T15:29:40.229Z,99878.38
2023-03-24T15:32:10.945Z,99879.03
2023-03-24T15:34:41.051Z,99870.38
2023-03-24T15:37:32.415Z,99878.41
2023-03-24T15:40:09.078Z,99874.31
2023-03-24T15:42:43.860Z,99867.44
2023-03-24T15:45:22.244Z,99856.53
2023-03-24T15:47:51.813Z,99847.63
2023-03-24T15:50:39.251Z,99858.41
2023-03-24T15:53:07.385Z,99852.47
2023-03-24T15:55:36.609Z,99851.84
2023-03-24T15:58:25.241Z,99841.44
2023-03-24T16:00:54.794Z,99846.34
2023-03-24T16:03:26.686Z,99833.56
2023-03-24T16:05:56.088Z,99837.75
2023-03-24T16:08:36.177Z,99845.56
2023-03-24T16:11:07.020Z,99838.31
2023-03-24T16:13:34.421Z,99833.25
2023-03-24T16:16:06.195Z,99834.34
2023-03-24T16:18:41.128Z,99853.72
2023-03-24T16:21:18.512Z,99859.94
2023-03-24T16:23:46.509Z,99874.97
2023-03-24T16:26:18.100Z,99892.78
2023-03-24T16:28:45.134Z,99894.25
2023-03-24T16:31:21.904Z,99889.41
2023-03-24T16:33:49.100Z,99888.56
2023-03-24T16:36:17.121Z,99891.59
2023-03-24T16:38:45.119Z,99901.94
2023-03-24T16:41:13.140Z,99913.16
2023-03-24T16:43:41.016Z,99915.16
2023-03-24T16:46:14.101Z,99950.06
2023-03-24T16:48:40.801Z,99971.47
2023-03-24T16:51:11.758Z,99966.94
2023-03-24T16:53:38.239Z,99954.00
2023-03-24T16:56:05.257Z,99969.41
2023-03-24T16:58:31.976Z,99966.75
2023-03-24T17:00:59.005Z,99977.44
2023-03-24T17:03:29.693Z,99986.56
2023-03-24T17:05:57.569Z,99960.53
2023-03-24T17:08:24.017Z,99962.78
2023-03-24T17:10:53.119Z,99957.81
2023-03-24T17:13:22.634Z,99962.03
2023-03-24T17:15:49.781Z,99963.78
2023-03-24T17:18:16.436Z,99937.66
2023-03-24T17:20:42.839Z,99955.75
2023-03-24T17:23:11.327Z,99962.38
2023-03-24T17:25:37.802Z,99952.06
2023-03-24T17:28:11.799Z,99945.81
2023-03-24T17:30:38.140Z,99954.28
2023-03-24T17:33:04.513Z,99959.97
2023-03-24T17:35:31.106Z,99961.34
2023-03-24T17:37:57.587Z,99957.59
2023-03-24T17:40:23.928Z,99955.75
2023-03-24T17:42:50.340Z,99957.13
2023-03-24T17:45:18.705Z,99948.97
2023-03-24T17:47:46.129Z,99952.81
2023-03-24T17:50:13.733Z,99952.88
2023-03-24T17:52:44.098Z,99959.94
2023-03-24T17:55:12.211Z,99956.16
2023-03-24T17:57:38.833Z,99952.41
2023-03-24T18:00:08.167Z,99951.31
2023-03-24T18:02:34.591Z,99955.41
2023-03-24T18:05:01.524Z,99952.41
2023-03-24T18:07:27.859Z,99955.69
2023-03-24T18:09:54.324Z,99968.78
2023-03-24T18:12:21.110Z,99965.53
2023-03-24T18:14:47.541Z,99970.47
2023-03-24T18:17:14.096Z,99963.66
2023-03-24T18:19:40.832Z,99966.97
2023-03-24T18:22:07.558Z,99967.25
2023-03-24T18:24:34.189Z,99974.84
2023-03-24T18:27:01.396Z,99969.13
2023-03-24T18:29:28.121Z,99971.59
2023-03-24T18:31:54.630Z,99966.16
2023-03-24T18:34:22.837Z,99967.50
2023-03-24T18:36:50.109Z,99960.69
2023-03-24T18:39:16.994Z,99971.59
2023-03-24T18:41:43.555Z,99962.88
2023-03-24T18:44:12.832Z,99965.59
2023-03-24T18:46:39.313Z,99958.53
2023-03-24T18:49:07.021Z,99958.53
2023-03-24T18:51:33.964Z,99960.44
2023-03-24T18:54:00.794Z,99952.00
2023-03-24T18:56:28.152Z,99950.91
2023-03-24T18:58:54.565Z,99962.31
2023-03-24T19:01:24.869Z,99945.47
2023-03-24T19:03:52.365Z,99951.47
2023-03-24T19:06:19.727Z,99948.22
2023-03-24T19:08:50.967Z,99936.78
2023-03-24T19:11:18.123Z,99949.84
2023-03-24T19:13:47.122Z,99955.28
2023-03-24T19:16:13.560Z,99942.75
2023-03-24T19:18:40.253Z,99952.56
2023-03-24T19:21:07.120Z,99957.44
2023-03-24T19:23:33.774Z,99948.75
2023-03-24T19:26:01.594Z,99943.84
2023-03-24T19:28:30.370Z,99943.84
2023-03-24T19:30:59.120Z,99947.66
2023-03-24T19:33:27.002Z,99945.75
2023-03-24T19:35:54.313Z,99945.75
2023-03-24T19:38:23.680Z,99948.19
2023-03-24T19:40:54.479Z,99953.66
2023-03-24T19:43:25.174Z,99950.38
2023-03-24T19:45:53.459Z,99949.84
2023-03-24T19:48:20.882Z,99959.59
2023-03-24T19:50:51.340Z,99955.28
2023-03-24T19:53:18.275Z,99960.69
2023-03-24T19:55:44.865Z,99965.03
2023-03-24T19:58:11.164Z,99964.25
2023-03-24T20:00:37.758Z,99952.00
2023-03-24T20:03:04.568Z,99952.03
2023-03-24T20:05:31.151Z,99955.25
2023-03-24T20:08:00.046Z,99955.81
2023-03-24T20:10:27.352Z,99953.63
2023-03-24T20:12:54.290Z,99949.28
2023-03-24T20:15:21.795Z,99962.31
2023-03-24T20:17:48.888Z,99953.34
2023-03-24T20:20:15.394Z,99953.06
2023-03-24T20:22:44.150Z,99952.81
2023-03-24T20:25:11.294Z,99952.25
2023-03-24T20:27:37.998Z,99954.13
2023-03-24T20:30:06.903Z,99950.88
2023-03-24T20:32:33.396Z,99951.94
2023-03-24T20:34:59.955Z,99960.91
2023-03-24T20:37:27.592Z,99948.66
2023-03-24T20:39:53.924Z,99947.53
2023-03-24T20:42:23.309Z,99947.22
2023-03-24T20:44:50.268Z,99939.06
2023-03-24T20:47:16.620Z,99946.72
2023-03-24T20:49:42.964Z,99951.09
2023-03-24T20:52:09.337Z,99944.28
2023-03-24T20:54:36.360Z,99943.47
2023-03-24T20:57:03.306Z,99951.91
2023-03-24T20:59:29.736Z,99940.50
2023-03-24T21:01:56.408Z,99946.50
2023-03-24T21:04:22.833Z,99947.03
2023-03-24T21:06:49.309Z,99939.44
2023-03-24T21:09:16.897Z,99943.78
2023-03-24T21:11:43.266Z,99943.78
2023-03-24T21:14:09.682Z,99930.19
2023-03-24T21:16:37.301Z,99931.81
2023-03-24T21:19:04.262Z,99929.09
2023-03-24T21:21:32.035Z,99933.97
2023-03-24T21:23:59.135Z,99931.81
2023-03-24T21:26:25.741Z,99933.47
2023-03-24T21:28:53.028Z,99937.81
2023-03-24T21:31:23.071Z,99940.00
2023-03-24T21:33:50.599Z,99940.00
2023-03-24T21:36:18.253Z,99928.56
2023-03-24T21:38:45.106Z,99918.75
2023-03-24T21:41:11.518Z,99923.66
2023-03-24T21:43:40.441Z,99937.28
2023-03-24T21:46:14.617Z,99938.38
2023-03-24T21:48:51.184Z,99945.19
2023-03-24T21:51:20.269Z,99950.91
2023-03-24T21:53:47.666Z,99954.72
2023-03-24T21:56:14.309Z,99944.91
2023-03-24T21:58:40.899Z,99950.09
2023-03-24T22:01:07.572Z,99952.28
2023-03-24T22:03:34.595Z,99947.34
2023-03-24T22:06:01.019Z,99953.06
2023-03-24T22:08:30.439Z,99945.44
2023-03-24T22:10:58.350Z,99947.34
2023-03-24T22:13:26.389Z,99945.44
2023-03-24T22:15:56.956Z,99947.09
2023-03-24T22:18:25.458Z,99952.00
2023-03-24T22:20:53.800Z,99947.63
2023-03-24T22:23:20.213Z,99946.81
2023-03-24T22:25:46.560Z,99948.16
2023-03-24T22:28:12.900Z,99952.28
2023-03-24T22:30:41.248Z,99959.06
2023-03-24T22:33:07.716Z,99961.50
2023-03-24T22:35:34.192Z,99954.19
2023-03-24T22:38:00.632Z,99961.25
2023-03-24T22:40:26.985Z,99968.84
2023-03-24T22:42:53.515Z,99959.06
2023-03-24T22:45:19.819Z,99955.28
2023-03-24T22:47:46.187Z,99961.81
2023-03-24T22:50:12.620Z,99966.13
2023-03-24T22:52:38.985Z,99963.16
2023-03-24T22:55:05.870Z,99963.44
2023-03-24T22:57:32.257Z,99960.44
2023-03-24T23:00:01.886Z,99959.88
2023-03-24T23:02:29.102Z,99957.44
2023-03-24T23:04:55.971Z,99972.38
2023-03-24T23:07:22.356Z,99967.22
2023-03-24T23:09:48.717Z,99968.59
2023-03-24T23:12:16.372Z,99973.22
2023-03-24T23:14:46.565Z,99977.56
2023-03-24T23:17:13.204Z,99970.19
2023-03-24T23:19:39.600Z,99979.19
2023-03-24T23:22:06.798Z,99973.22
2023-03-24T23:24:33.596Z,99980.25
2023-03-24T23:27:00.359Z,99982.44
2023-03-24T23:29:26.740Z,99994.13
2023-03-24T23:31:53.225Z,99994.97
2023-03-24T23:34:19.740Z,99995.25
2023-03-24T23:36:49.782Z,99999.56
2023-03-24T23:39:17.135Z,99997.13
2023-03-24T23:41:43.487Z,100000.09
2023-03-24T23:44:10.332Z,99997.38
2023-03-24T23:46:36.845Z,99991.41
2023-03-24T23:49:03.212Z,99992.75
2023-03-24T23:51:29.603Z,100002.00
2023-03-24T23:53:55.907Z,100000.09
2023-03-24T23:56:22.646Z,100002.00
2023-03-24T23:58:49.024Z,100009.38
